sensor_id;sensor_type;location;lat;lon;timestamp;pressure;altitude;pressure_sealevel;temperature;humidity
48792;BME280;34587;48.816;9.420;2023-02-19T00:02:14;99342.13;;;8.41;100.00
48792;BME280;34587;48.816;9.420;2023-02-19T00:04:40;99336.94;;;8.32;100.00
48792;BME280;34587;48.816;9.420;2023-02-19T00:07:05;99336.94;;;8.32;100.00
48792;BME280;34587;48.816;9.420;2023-02-19T00:09:30;99341.25;;;8.38;100.00
48792;BME280;34587;48.816;9.420;2023-02-19T00:11:55;99333.47;;;8.30;100.00
48792;BME280;34587;48.816;9.420;2023-02-19T00:14:21;99335.22;;;8.28;100.00
48792;BME280;34587;48.816;9.420;2023-02-19T00:16:47;99331.75;;;8.35;100.00
48792;BME280;34587;48.816;9.420;2023-02-19T00:19:15;99324.88;;;8.34;100.00
48792;BME280;34587;48.816;9.420;2023-02-19T00:21:41;99326.63;;;8.47;100.00
48792;BME280;34587;48.816;9.420;2023-02-19T00:24:07;99330.06;;;8.45;100.00
48792;BME280;34587;48.816;9.420;2023-02-19T00:26:33;99319.75;;;8.43;100.00
48792;BME280;34587;48.816;9.420;2023-02-19T00:29:00;99325.75;;;8.48;100.00
48792;BME280;34587;48.816;9.420;2023-02-19T00:31:30;99324.88;;;8.34;100.00
48792;BME280;34587;48.816;9.420;2023-02-19T00:33:59;99319.72;;;8.28;100.00
48792;BME280;34587;48.816;9.420;2023-02-19T00:36:26;99332.66;;;8.45;100.00
48792;BME280;34587;48.816;9.420;2023-02-19T00:38:52;99324.88;;;8.34;100.00
48792;BME280;34587;48.816;9.420;2023-02-19T00:41:19;99325.75;;;8.27;100.00
48792;BME280;34587;48.816;9.420;2023-02-19T00:43:59;99327.50;;;8.39;100.00
48792;BME280;34587;48.816;9.420;2023-02-19T00:46:27;99326.59;;;8.29;100.00
48792;BME280;34587;48.816;9.420;2023-02-19T00:48:54;99328.34;;;8.52;100.00
48792;BME280;34587;48.816;9.420;2023-02-19T00:51:22;99332.59;;;8.31;100.00
48792;BME280;34587;48.816;9.420;2023-02-19T00:53:47;99330.91;;;8.30;100.00
48792;BME280;34587;48.816;9.420;2023-02-19T00:56:13;99324.03;;;8.28;100.00
48792;BME280;34587;48.816;9.420;2023-02-19T00:58:39;99340.34;;;8.25;100.00
48792;BME280;34587;48.816;9.420;2023-02-19T05:46:50;99313.69;;;8.00;100.00
48792;BME280;34587;48.816;9.420;2023-02-19T05:49:16;99325.72;;;7.99;100.00
48792;BME280;34587;48.816;9.420;2023-02-19T05:51:41;99330.03;;;7.94;100.00
48792;BME280;34587;48.816;9.420;2023-02-19T05:54:06;99328.31;;;7.99;100.00
48792;BME280;34587;48.816;9.420;2023-02-19T05:56:39;99335.16;;;7.97;100.00
48792;BME280;34587;48.816;9.420;2023-02-19T05:59:14;99331.72;;;7.97;100.00
48792;BME280;34587;48.816;9.420;2023-02-19T06:01:40;99328.28;;;7.96;100.00
48792;BME280;34587;48.816;9.420;2023-02-19T06:04:06;99331.72;;;7.95;99.94
48792;BME280;34587;48.816;9.420;2023-02-19T06:06:31;99330.03;;;7.94;99.60
48792;BME280;34587;48.816;9.420;2023-02-19T06:08:57;99337.75;;;7.96;99.53
48792;BME280;34587;48.816;9.420;2023-02-19T06:11:23;99335.19;;;8.01;98.51
48792;BME280;34587;48.816;9.420;2023-02-19T06:13:48;99338.63;;;7.99;97.99
48792;BME280;34587;48.816;9.420;2023-02-19T06:16:14;99329.19;;;8.03;98.38
48792;BME280;34587;48.816;9.420;2023-02-19T06:18:41;99342.06;;;8.02;97.98
48792;BME280;34587;48.816;9.420;2023-02-19T06:21:09;99340.34;;;8.04;98.39
48792;BME280;34587;48.816;9.420;2023-02-19T06:23:34;99342.09;;;8.08;96.48
48792;BME280;34587;48.816;9.420;2023-02-19T06:26:07;99345.50;;;8.07;96.81
48792;BME280;34587;48.816;9.420;2023-02-19T06:28:32;99353.25;;;8.10;95.72
48792;BME280;34587;48.816;9.420;2023-02-19T06:30:58;99358.41;;;8.11;95.25
48792;BME280;34587;48.816;9.420;2023-02-19T06:33:25;99352.41;;;8.12;94.14
48792;BME280;34587;48.816;9.420;2023-02-19T06:35:51;99355.84;;;8.10;94.87
48792;BME280;34587;48.816;9.420;2023-02-19T06:38:16;99345.53;;;8.13;93.94
48792;BME280;34587;48.816;9.420;2023-02-19T06:40:41;99346.38;;;8.10;94.02
48792;BME280;34587;48.816;9.420;2023-02-19T06:43:06;99340.34;;;8.10;93.82
48792;BME280;34587;48.816;9.420;2023-02-19T06:45:32;99347.25;;;8.18;92.59
48792;BME280;34587;48.816;9.420;2023-02-19T06:47:58;99352.41;;;8.14;93.40
48792;BME280;34587;48.816;9.420;2023-02-19T06:50:23;99359.28;;;8.15;93.42
48792;BME280;34587;48.816;9.420;2023-02-19T06:52:48;99366.16;;;8.16;93.00
48792;BME280;34587;48.816;9.420;2023-02-19T06:55:14;99369.63;;;8.18;93.36
48792;BME280;34587;48.816;9.420;2023-02-19T06:57:39;99375.63;;;8.21;93.01
48792;BME280;34587;48.816;9.420;2023-02-19T07:00:05;99378.22;;;8.35;91.77
48792;BME280;34587;48.816;9.420;2023-02-19T07:02:30;99380.81;;;8.32;92.33
48792;BME280;34587;48.816;9.420;2023-02-19T07:04:55;99370.50;;;8.29;91.47
48792;BME280;34587;48.816;9.420;2023-02-19T07:07:21;99385.13;;;8.33;90.24
48792;BME280;34587;48.816;9.420;2023-02-19T07:09:46;99381.72;;;8.37;89.32
48792;BME280;34587;48.816;9.420;2023-02-19T07:12:11;99379.97;;;8.45;87.02
48792;BME280;34587;48.816;9.420;2023-02-19T07:14:37;99387.75;;;8.47;87.44
48792;BME280;34587;48.816;9.420;2023-02-19T07:17:02;99390.31;;;8.48;86.33
48792;BME280;34587;48.816;9.420;2023-02-19T07:19:27;99390.34;;;8.52;85.77
48792;BME280;34587;48.816;9.420;2023-02-19T07:21:53;99392.03;;;8.49;86.12
48792;BME280;34587;48.816;9.420;2023-02-19T07:24:18;99409.25;;;8.54;85.76
48792;BME280;34587;48.816;9.420;2023-02-19T07:26:45;99415.28;;;8.56;85.12
48792;BME280;34587;48.816;9.420;2023-02-19T07:29:10;99417.00;;;8.58;85.23
48792;BME280;34587;48.816;9.420;2023-02-19T07:31:36;99414.44;;;8.63;84.36
48792;BME280;34587;48.816;9.420;2023-02-19T07:34:01;99417.88;;;8.65;83.96
48792;BME280;34587;48.816;9.420;2023-02-19T07:36:26;99421.31;;;8.70;82.49
48792;BME280;34587;48.816;9.420;2023-02-19T07:38:56;99411.88;;;8.70;82.59
48792;BME280;34587;48.816;9.420;2023-02-19T07:41:23;99419.59;;;8.72;83.22
48792;BME280;34587;48.816;9.420;2023-02-19T07:43:48;99419.59;;;8.72;83.78
48792;BME280;34587;48.816;9.420;2023-02-19T07:46:14;99417.00;;;8.69;84.14
48792;BME280;34587;48.816;9.420;2023-02-19T07:48:41;99431.66;;;8.73;84.30
48792;BME280;34587;48.816;9.420;2023-02-19T07:51:10;99431.66;;;8.76;83.78
48792;BME280;34587;48.816;9.420;2023-02-19T07:53:36;99438.53;;;8.77;84.61
48792;BME280;34587;48.816;9.420;2023-02-19T07:56:03;99441.97;;;8.79;84.36
48792;BME280;34587;48.816;9.420;2023-02-19T07:58:29;99450.59;;;8.66;85.21
48792;BME280;34587;48.816;9.420;2023-02-19T08:00:55;99452.31;;;8.70;85.69
48792;BME280;34587;48.816;9.420;2023-02-19T08:03:20;99449.72;;;8.65;85.58
48792;BME280;34587;48.816;9.420;2023-02-19T08:05:45;99453.19;;;8.63;87.02
48792;BME280;34587;48.816;9.420;2023-02-19T08:08:13;99447.13;;;8.55;87.10
48792;BME280;34587;48.816;9.420;2023-02-19T08:10:39;99443.69;;;8.53;87.63
48792;BME280;34587;48.816;9.420;2023-02-19T08:13:24;99443.69;;;8.59;87.76
48792;BME280;34587;48.816;9.420;2023-02-19T08:16:11;99435.13;;;8.66;87.71
48792;BME280;34587;48.816;9.420;2023-02-19T08:18:36;99438.56;;;8.75;86.87
48792;BME280;34587;48.816;9.420;2023-02-19T08:21:02;99442.84;;;8.77;85.19
48792;BME280;34587;48.816;9.420;2023-02-19T08:23:28;99445.44;;;8.78;85.59
48792;BME280;34587;48.816;9.420;2023-02-19T08:25:56;99438.53;;;8.77;84.60
48792;BME280;34587;48.816;9.420;2023-02-19T08:28:22;99447.13;;;8.94;83.85
48792;BME280;34587;48.816;9.420;2023-02-19T08:30:48;99444.56;;;9.02;83.12
48792;BME280;34587;48.816;9.420;2023-02-19T08:33:17;99454.06;;;9.05;82.58
48792;BME280;34587;48.816;9.420;2023-02-19T08:35:43;99448.84;;;9.17;80.16
48792;BME280;34587;48.816;9.420;2023-02-19T08:38:11;99458.34;;;9.01;82.84
48792;BME280;34587;48.816;9.420;2023-02-19T08:40:38;99460.06;;;8.97;82.86
48792;BME280;34587;48.816;9.420;2023-02-19T08:43:05;99475.56;;;8.84;83.23
48792;BME280;34587;48.816;9.420;2023-02-19T08:45:31;99481.59;;;8.84;82.59
48792;BME280;34587;48.816;9.420;2023-02-19T08:47:57;99480.75;;;8.82;82.91
48792;BME280;34587;48.816;9.420;2023-02-19T08:50:22;99486.78;;;8.81;83.00
48792;BME280;34587;48.816;9.420;2023-02-19T08:52:48;99478.19;;;8.85;83.68
48792;BME280;34587;48.816;9.420;2023-02-19T08:55:13;99479.88;;;9.11;82.95
48792;BME280;34587;48.816;9.420;2023-02-19T08:57:38;99481.59;;;9.21;82.10
48792;BME280;34587;48.816;9.420;2023-02-19T09:00:05;99476.44;;;9.24;81.49
48792;BME280;34587;48.816;9.420;2023-02-19T09:02:31;99483.31;;;9.34;79.54
48792;BME280;34587;48.816;9.420;2023-02-19T09:04:56;99493.56;;;9.62;77.08
48792;BME280;34587;48.816;9.420;2023-02-19T09:07:22;99491.84;;;9.61;76.79
48792;BME280;34587;48.816;9.420;2023-02-19T09:09:47;99497.91;;;9.67;76.50
48792;BME280;34587;48.816;9.420;2023-02-19T09:12:13;99505.66;;;9.69;76.64
48792;BME280;34587;48.816;9.420;2023-02-19T09:14:38;99507.34;;;9.67;76.69
48792;BME280;34587;48.816;9.420;2023-02-19T09:17:05;99508.25;;;9.61;76.80
48792;BME280;34587;48.816;9.420;2023-02-19T09:19:31;99506.56;;;9.49;75.75
48792;BME280;34587;48.816;9.420;2023-02-19T09:21:57;99512.59;;;9.48;76.05
48792;BME280;34587;48.816;9.420;2023-02-19T09:24:23;99515.16;;;9.55;75.99
48792;BME280;34587;48.816;9.420;2023-02-19T09:26:50;99514.25;;;9.71;75.78
48792;BME280;34587;48.816;9.420;2023-02-19T09:29:15;99520.28;;;9.76;74.49
48792;BME280;34587;48.816;9.420;2023-02-19T09:31:41;99515.97;;;9.83;75.43
48792;BME280;34587;48.816;9.420;2023-02-19T09:34:06;99525.47;;;9.70;74.59
48792;BME280;34587;48.816;9.420;2023-02-19T09:36:32;99536.66;;;9.84;73.67
48792;BME280;34587;48.816;9.420;2023-02-19T09:38:58;99540.16;;;9.68;75.47
48792;BME280;34587;48.816;9.420;2023-02-19T09:41:33;99538.28;;;10.16;73.15
48792;BME280;34587;48.816;9.420;2023-02-19T09:44:01;99533.06;;;10.19;72.34
48792;BME280;34587;48.816;9.420;2023-02-19T09:46:31;99525.19;;;10.48;72.65
48792;BME280;34587;48.816;9.420;2023-02-19T09:49:06;99524.22;;;10.69;71.62
48792;BME280;34587;48.816;9.420;2023-02-19T09:51:36;99531.28;;;10.39;70.59
48792;BME280;34587;48.816;9.420;2023-02-19T09:54:05;99524.25;;;10.63;70.25
48792;BME280;34587;48.816;9.420;2023-02-19T09:56:32;99529.44;;;10.58;68.89
48792;BME280;34587;48.816;9.420;2023-02-19T09:58:58;99523.41;;;10.61;68.63
48792;BME280;34587;48.816;9.420;2023-02-19T10:01:29;99529.25;;;10.93;67.85
48792;BME280;34587;48.816;9.420;2023-02-19T10:03:57;99531.06;;;10.79;68.40
48792;BME280;34587;48.816;9.420;2023-02-19T10:06:25;99550.25;;;10.50;67.96
48792;BME280;34587;48.816;9.420;2023-02-19T10:08:54;99537.13;;;10.72;67.35
48792;BME280;34587;48.816;9.420;2023-02-19T10:11:21;99550.25;;;10.47;66.28
48792;BME280;34587;48.816;9.420;2023-02-19T10:16:19;99542.34;;;10.70;66.65
48792;BME280;34587;48.816;9.420;2023-02-19T10:18:46;99543.03;;;10.98;65.23
48792;BME280;34587;48.816;9.420;2023-02-19T10:21:21;99537.63;;;11.24;63.37
48792;BME280;34587;48.816;9.420;2023-02-19T10:23:51;99540.16;;;11.32;63.16
48792;BME280;34587;48.816;9.420;2023-02-19T10:26:18;99555.03;;;11.09;63.24
48792;BME280;34587;48.816;9.420;2023-02-19T10:28:44;99546.56;;;10.85;62.07
48792;BME280;34587;48.816;9.420;2023-02-19T10:31:20;99563.13;;;10.63;62.44
48792;BME280;34587;48.816;9.420;2023-02-19T10:33:54;99556.09;;;10.81;62.34
48792;BME280;34587;48.816;9.420;2023-02-19T10:36:29;99563.97;;;10.69;62.87
48792;BME280;34587;48.816;9.420;2023-02-19T10:38:56;99561.25;;;10.89;62.94
48792;BME280;34587;48.816;9.420;2023-02-19T10:41:23;99569.13;;;10.71;62.91
48792;BME280;34587;48.816;9.420;2023-02-19T10:44:17;99575.19;;;10.67;62.64
48792;BME280;34587;48.816;9.420;2023-02-19T10:46:47;99574.31;;;10.68;62.76
48792;BME280;34587;48.816;9.420;2023-02-19T10:49:26;99566.44;;;10.86;62.69
48792;BME280;34587;48.816;9.420;2023-02-19T10:51:55;99568.97;;;10.95;63.13
48792;BME280;34587;48.816;9.420;2023-02-19T10:54:32;99575.88;;;10.95;62.15
48792;BME280;34587;48.816;9.420;2023-02-19T10:59:53;99576.59;;;11.18;61.63
48792;BME280;34587;48.816;9.420;2023-02-19T11:02:22;99570.56;;;11.15;60.36
48792;BME280;34587;48.816;9.420;2023-02-19T11:10:24;99569.50;;;11.39;59.38
48792;BME280;34587;48.816;9.420;2023-02-19T11:12:51;99556.31;;;11.62;58.88
48792;BME280;34587;48.816;9.420;2023-02-19T11:15:27;99564.78;;;11.79;59.78
48792;BME280;34587;48.816;9.420;2023-02-19T11:20:35;99553.63;;;12.46;58.39
48792;BME280;34587;48.816;9.420;2023-02-19T11:23:26;99565.81;;;11.66;59.96
48792;BME280;34587;48.816;9.420;2023-02-19T11:25:54;99569.22;;;12.46;57.47
48792;BME280;34587;48.816;9.420;2023-02-19T11:28:37;99579.63;;;11.66;60.53
48792;BME280;34587;48.816;9.420;2023-02-19T11:31:18;99569.41;;;11.51;60.81
48792;BME280;34587;48.816;9.420;2023-02-19T11:33:55;99570.34;;;11.39;62.50
48792;BME280;34587;48.816;9.420;2023-02-19T11:38:54;99572.59;;;10.70;63.54
48792;BME280;34587;48.816;9.420;2023-02-19T11:52:41;99588.72;;;11.15;62.10
48792;BME280;34587;48.816;9.420;2023-02-19T11:55:13;99591.06;;;11.45;60.72
48792;BME280;34587;48.816;9.420;2023-02-19T11:57:45;99598.78;;;11.53;60.84
48792;BME280;34587;48.816;9.420;2023-02-19T12:00:25;99602.97;;;11.71;59.80
48792;BME280;34587;48.816;9.420;2023-02-19T12:03:16;99583.84;;;11.78;59.51
48792;BME280;34587;48.816;9.420;2023-02-19T12:05:49;99606.63;;;11.45;58.86
48792;BME280;34587;48.816;9.420;2023-02-19T12:11:39;99599.88;;;11.21;60.56
48792;BME280;34587;48.816;9.420;2023-02-19T12:14:41;99598.38;;;10.91;60.88
48792;BME280;34587;48.816;9.420;2023-02-19T12:17:15;99609.66;;;10.84;60.47
48792;BME280;34587;48.816;9.420;2023-02-19T12:20:05;99603.59;;;10.85;61.49
48792;BME280;34587;48.816;9.420;2023-02-19T12:22:42;99604.53;;;10.75;61.98
48792;BME280;34587;48.816;9.420;2023-02-19T12:25:24;99604.47;;;10.81;61.80
48792;BME280;34587;48.816;9.420;2023-02-19T12:28:17;99591.59;;;10.69;62.32
48792;BME280;34587;48.816;9.420;2023-02-19T12:33:57;99597.34;;;11.15;61.25
48792;BME280;34587;48.816;9.420;2023-02-19T12:44:53;99605.38;;;10.77;61.67
48792;BME280;34587;48.816;9.420;2023-02-19T12:47:24;99607.16;;;10.69;61.80
48792;BME280;34587;48.816;9.420;2023-02-19T12:52:32;99577.50;;;11.13;61.25
48792;BME280;34587;48.816;9.420;2023-02-19T12:55:15;99578.91;;;11.50;60.77
48792;BME280;34587;48.816;9.420;2023-02-19T12:57:42;99586.41;;;11.84;59.73
48792;BME280;34587;48.816;9.420;2023-02-19T13:00:22;99582.50;;;11.37;60.02
48792;BME280;34587;48.816;9.420;2023-02-19T13:03:10;99571.50;;;12.04;59.25
48792;BME280;34587;48.816;9.420;2023-02-19T13:05:51;99565.13;;;12.30;57.25
48792;BME280;34587;48.816;9.420;2023-02-19T13:08:31;99574.44;;;11.65;59.00
48792;BME280;34587;48.816;9.420;2023-02-19T13:11:02;99580.41;;;11.76;59.34
48792;BME280;34587;48.816;9.420;2023-02-19T13:16:13;99586.13;;;11.12;60.49
48792;BME280;34587;48.816;9.420;2023-02-19T13:18:46;99574.31;;;10.68;60.82
48792;BME280;34587;48.816;9.420;2023-02-19T13:21:14;99579.56;;;10.57;61.32
48792;BME280;34587;48.816;9.420;2023-02-19T13:24:04;99584.78;;;10.46;60.94
48792;BME280;34587;48.816;9.420;2023-02-19T13:29:57;99593.59;;;9.96;64.41
48792;BME280;34587;48.816;9.420;2023-02-19T13:37:50;99583.16;;;10.05;63.70
48792;BME280;34587;48.816;9.420;2023-02-19T13:42:54;99588.34;;;10.05;64.55
48792;BME280;34587;48.816;9.420;2023-02-19T13:45:22;99591.75;;;10.29;64.03
48792;BME280;34587;48.816;9.420;2023-02-19T13:50:23;99590.16;;;9.91;66.99
48792;BME280;34587;48.816;9.420;2023-02-19T14:01:07;99594.38;;;10.17;67.35
48792;BME280;34587;48.816;9.420;2023-02-19T14:06:04;99592.75;;;9.68;71.23
48792;BME280;34587;48.816;9.420;2023-02-19T14:11:16;99594.50;;;9.36;74.43
48792;BME280;34587;48.816;9.420;2023-02-19T14:18:53;99590.19;;;8.99;80.44
48792;BME280;34587;48.816;9.420;2023-02-19T14:21:25;99593.59;;;8.98;82.61
48792;BME280;34587;48.816;9.420;2023-02-19T14:23:58;99596.22;;;9.09;81.92
48792;BME280;34587;48.816;9.420;2023-02-19T14:26:25;99585.88;;;9.37;80.75
48792;BME280;34587;48.816;9.420;2023-02-19T14:28:52;99590.16;;;9.67;79.82
48792;BME280;34587;48.816;9.420;2023-02-19T14:31:29;99590.16;;;9.73;79.45
48792;BME280;34587;48.816;9.420;2023-02-19T14:36:42;99603.97;;;9.83;77.69
48792;BME280;34587;48.816;9.420;2023-02-19T14:39:27;99597.03;;;9.86;77.04
48792;BME280;34587;48.816;9.420;2023-02-19T14:41:57;99597.81;;;10.14;76.01
48792;BME280;34587;48.816;9.420;2023-02-19T14:44:26;99591.00;;;9.92;75.71
48792;BME280;34587;48.816;9.420;2023-02-19T14:49:29;99600.41;;;10.28;73.23
48792;BME280;34587;48.816;9.420;2023-02-19T14:51:58;99605.59;;;10.25;72.78
48792;BME280;34587;48.816;9.420;2023-02-19T14:54:38;99609.03;;;10.36;72.70
48792;BME280;34587;48.816;9.420;2023-02-19T14:57:10;99619.38;;;10.36;71.13
48792;BME280;34587;48.816;9.420;2023-02-19T14:59:36;99619.41;;;10.24;71.58
48792;BME280;34587;48.816;9.420;2023-02-19T15:02:22;99618.53;;;10.14;71.26
48792;BME280;34587;48.816;9.420;2023-02-19T15:04:50;99615.94;;;10.19;71.22
48792;BME280;34587;48.816;9.420;2023-02-19T15:07:26;99612.50;;;10.14;71.68
48792;BME280;34587;48.816;9.420;2023-02-19T15:09:56;99619.41;;;10.30;71.33
48792;BME280;34587;48.816;9.420;2023-02-19T15:12:24;99626.31;;;10.10;72.13
48792;BME280;34587;48.816;9.420;2023-02-19T15:14:54;99639.28;;;10.08;72.87
48792;BME280;34587;48.816;9.420;2023-02-19T15:17:30;99640.13;;;10.09;69.98
48792;BME280;34587;48.816;9.420;2023-02-19T15:19:59;99640.16;;;10.02;71.09
48792;BME280;34587;48.816;9.420;2023-02-19T15:22:28;99645.31;;;10.05;70.13
48792;BME280;34587;48.816;9.420;2023-02-19T15:24:59;99641.91;;;9.88;70.36
48792;BME280;34587;48.816;9.420;2023-02-19T15:27:24;99647.94;;;9.95;68.94
48792;BME280;34587;48.816;9.420;2023-02-19T15:29:51;99646.22;;;10.06;69.13
48792;BME280;34587;48.816;9.420;2023-02-19T15:32:22;99653.97;;;9.98;69.46
48792;BME280;34587;48.816;9.420;2023-02-19T15:35:01;99656.56;;;9.89;70.05
48792;BME280;34587;48.816;9.420;2023-02-19T15:37:29;99651.41;;;9.83;68.81
48792;BME280;34587;48.816;9.420;2023-02-19T15:39:56;99647.97;;;9.73;67.38
48792;BME280;34587;48.816;9.420;2023-02-19T15:42:24;99650.53;;;9.75;68.04
48792;BME280;34587;48.816;9.420;2023-02-19T15:45:05;99651.41;;;9.83;68.00
48792;BME280;34587;48.816;9.420;2023-02-19T15:48:00;99648.81;;;9.89;67.80
48792;BME280;34587;48.816;9.420;2023-02-19T15:50:40;99643.63;;;9.80;68.27
48792;BME280;34587;48.816;9.420;2023-02-19T15:53:22;99632.41;;;9.90;69.00
48792;BME280;34587;48.816;9.420;2023-02-19T15:58:42;99632.41;;;9.86;68.13
48792;BME280;34587;48.816;9.420;2023-02-19T16:01:18;99634.16;;;9.87;69.24
48792;BME280;34587;48.816;9.420;2023-02-19T16:03:45;99648.81;;;9.89;68.29
48792;BME280;34587;48.816;9.420;2023-02-19T16:06:15;99649.66;;;9.85;68.43
48792;BME280;34587;48.816;9.420;2023-02-19T16:08:44;99652.25;;;9.76;69.65
48792;BME280;34587;48.816;9.420;2023-02-19T16:13:49;99649.66;;;9.81;69.12
48792;BME280;34587;48.816;9.420;2023-02-19T16:16:29;99660.88;;;9.57;70.39
48792;BME280;34587;48.816;9.420;2023-02-19T16:18:59;99664.34;;;9.57;69.65
48792;BME280;34587;48.816;9.420;2023-02-19T16:21:25;99664.34;;;9.62;69.93
48792;BME280;34587;48.816;9.420;2023-02-19T16:23:59;99667.81;;;9.58;70.05
48792;BME280;34587;48.816;9.420;2023-02-19T16:26:25;99666.94;;;9.59;69.13
48792;BME280;34587;48.816;9.420;2023-02-19T16:28:52;99664.34;;;9.56;69.46
48792;BME280;34587;48.816;9.420;2023-02-19T16:31:20;99674.69;;;9.62;68.88
48792;BME280;34587;48.816;9.420;2023-02-19T16:33:47;99671.25;;;9.60;68.95
48792;BME280;34587;48.816;9.420;2023-02-19T16:41:27;99661.75;;;9.43;69.72
48792;BME280;34587;48.816;9.420;2023-02-19T16:43:53;99664.34;;;9.46;70.12
48792;BME280;34587;48.816;9.420;2023-02-19T16:46:18;99661.72;;;9.37;71.18
48792;BME280;34587;48.816;9.420;2023-02-19T16:48:44;99659.16;;;9.34;70.63
48792;BME280;34587;48.816;9.420;2023-02-19T16:51:16;99657.44;;;9.39;70.28
48792;BME280;34587;48.816;9.420;2023-02-19T16:53:42;99657.44;;;9.30;69.99
48792;BME280;34587;48.816;9.420;2023-02-19T16:56:12;99658.31;;;9.29;70.25
48792;BME280;34587;48.816;9.420;2023-02-19T16:58:39;99662.59;;;9.36;69.22
48792;BME280;34587;48.816;9.420;2023-02-19T17:01:04;99673.84;;;9.38;69.70
48792;BME280;34587;48.816;9.420;2023-02-19T17:03:30;99674.69;;;9.34;69.94
48792;BME280;34587;48.816;9.420;2023-02-19T17:05:55;99683.31;;;9.33;69.75
48792;BME280;34587;48.816;9.420;2023-02-19T17:08:35;99688.47;;;9.25;70.41
48792;BME280;34587;48.816;9.420;2023-02-19T17:11:04;99697.06;;;9.32;70.17
48792;BME280;34587;48.816;9.420;2023-02-19T17:13:30;99686.75;;;9.35;69.71
48792;BME280;34587;48.816;9.420;2023-02-19T17:15:56;99694.47;;;9.20;70.41
48792;BME280;34587;48.816;9.420;2023-02-19T17:18:22;99697.09;;;9.29;70.27
48792;BME280;34587;48.816;9.420;2023-02-19T17:20:54;99699.63;;;9.23;70.53
48792;BME280;34587;48.816;9.420;2023-02-19T17:23:20;99707.41;;;9.23;70.24
48792;BME280;34587;48.816;9.420;2023-02-19T17:25:46;99713.44;;;9.20;70.62
48792;BME280;34587;48.816;9.420;2023-02-19T17:28:11;99716.00;;;9.16;71.34
48792;BME280;34587;48.816;9.420;2023-02-19T17:30:36;99713.44;;;9.22;70.85
48792;BME280;34587;48.816;9.420;2023-02-19T17:33:02;99715.16;;;9.14;71.10
48792;BME280;34587;48.816;9.420;2023-02-19T17:35:27;99722.06;;;9.32;70.32
48792;BME280;34587;48.816;9.420;2023-02-19T17:37:52;99720.34;;;9.32;70.46
48792;BME280;34587;48.816;9.420;2023-02-19T17:40:25;99726.38;;;9.28;70.38
48792;BME280;34587;48.816;9.420;2023-02-19T17:42:51;99732.38;;;9.16;71.12
48792;BME280;34587;48.816;9.420;2023-02-19T17:45:16;99740.09;;;9.09;71.54
48792;BME280;34587;48.816;9.420;2023-02-19T17:47:42;99744.44;;;9.10;71.94
48792;BME280;34587;48.816;9.420;2023-02-19T17:50:15;99737.53;;;9.12;71.33
48792;BME280;34587;48.816;9.420;2023-02-19T17:52:41;99752.19;;;9.13;71.28
48792;BME280;34587;48.816;9.420;2023-02-19T17:55:06;99754.78;;;9.16;70.97
48792;BME280;34587;48.816;9.420;2023-02-19T17:57:32;99757.38;;;9.16;71.43
48792;BME280;34587;48.816;9.420;2023-02-19T17:59:58;99768.56;;;9.12;71.27
48792;BME280;34587;48.816;9.420;2023-02-19T18:02:24;99778.06;;;9.16;72.11
48792;BME280;34587;48.816;9.420;2023-02-19T18:04:49;99778.06;;;9.10;71.24
48792;BME280;34587;48.816;9.420;2023-02-19T18:07:14;99774.59;;;9.05;71.66
48792;BME280;34587;48.816;9.420;2023-02-19T18:09:39;99784.94;;;9.05;71.89
48792;BME280;34587;48.816;9.420;2023-02-19T18:12:05;99794.34;;;8.95;72.96
48792;BME280;34587;48.816;9.420;2023-02-19T18:14:30;99801.28;;;9.02;72.22
48792;BME280;34587;48.816;9.420;2023-02-19T18:16:56;99798.66;;;8.97;72.73
48792;BME280;34587;48.816;9.420;2023-02-19T18:19:21;99792.66;;;9.00;73.26
48792;BME280;34587;48.816;9.420;2023-02-19T18:21:47;99804.66;;;8.93;72.94
48792;BME280;34587;48.816;9.420;2023-02-19T18:24:12;99811.59;;;8.96;73.62
48792;BME280;34587;48.816;9.420;2023-02-19T18:26:37;99814.16;;;8.91;73.46
48792;BME280;34587;48.816;9.420;2023-02-19T18:29:04;99807.16;;;8.80;74.46
48792;BME280;34587;48.816;9.420;2023-02-19T18:31:33;99808.91;;;8.82;74.42
48792;BME280;34587;48.816;9.420;2023-02-19T18:33:58;99822.69;;;8.78;74.19
48792;BME280;34587;48.816;9.420;2023-02-19T18:36:23;99814.13;;;8.85;74.33
48792;BME280;34587;48.816;9.420;2023-02-19T18:38:49;99817.53;;;8.81;74.78
48792;BME280;34587;48.816;9.420;2023-02-19T18:41:14;99813.16;;;8.72;74.95
48792;BME280;34587;48.816;9.420;2023-02-19T18:43:43;99808.03;;;8.79;74.46
48792;BME280;34587;48.816;9.420;2023-02-19T18:46:09;99812.38;;;8.84;74.41
48792;BME280;34587;48.816;9.420;2023-02-19T18:48:35;99819.31;;;8.94;74.40
48792;BME280;34587;48.816;9.420;2023-02-19T18:51:00;99826.13;;;8.79;74.81
48792;BME280;34587;48.816;9.420;2023-02-19T18:53:25;99831.28;;;8.77;74.94
48792;BME280;34587;48.816;9.420;2023-02-19T18:55:50;99826.16;;;8.80;74.66
48792;BME280;34587;48.816;9.420;2023-02-19T18:58:16;99833.00;;;8.78;74.65
48792;BME280;34587;48.816;9.420;2023-02-19T19:00:42;99824.34;;;8.70;75.13
48792;BME280;34587;48.816;9.420;2023-02-19T19:03:08;99826.13;;;8.77;74.92
48792;BME280;34587;48.816;9.420;2023-02-19T19:05:33;99822.66;;;8.80;74.18
48792;BME280;34587;48.816;9.420;2023-02-19T19:07:58;99824.38;;;8.73;75.61
48792;BME280;34587;48.816;9.420;2023-02-19T19:10:27;99836.41;;;8.74;75.02
48792;BME280;34587;48.816;9.420;2023-02-19T19:12:52;99835.56;;;8.70;74.78
48792;BME280;34587;48.816;9.420;2023-02-19T19:15:18;99832.09;;;8.67;75.34
48792;BME280;34587;48.816;9.420;2023-02-19T19:17:45;99832.88;;;8.60;75.31
48792;BME280;34587;48.816;9.420;2023-02-19T19:20:10;99839.81;;;8.62;75.22
48792;BME280;34587;48.816;9.420;2023-02-19T19:22:36;99848.44;;;8.67;75.14
48792;BME280;34587;48.816;9.420;2023-02-19T19:25:02;99851.03;;;8.69;74.56
48792;BME280;34587;48.816;9.420;2023-02-19T19:27:27;99855.38;;;8.73;74.47
48792;BME280;34587;48.816;9.420;2023-02-19T19:29:52;99848.53;;;8.81;74.17
48792;BME280;34587;48.816;9.420;2023-02-19T19:32:18;99848.59;;;8.90;73.82
48792;BME280;34587;48.816;9.420;2023-02-19T19:34:43;99852.88;;;8.85;74.53
48792;BME280;34587;48.816;9.420;2023-02-19T19:37:09;99854.50;;;8.74;75.20
48792;BME280;34587;48.816;9.420;2023-02-19T19:39:34;99853.66;;;8.75;74.28